Time;durP1;ratioP1;P1;durP2;ratioP2;P2;SDS_P1;SDS_P2;PMS_P1;PMS_P2;Temp;Humidity;BMP_temperature;BMP_pressure;BME280_temperature;BME280_humidity;BME280_pressure;Samples;Min_cycle;Max_cycle;Signal;HPM_P1;HPM_P2
2024/04/26 00:02:14;;;;;;;1.10;0.40;;;5.70;99.90;;;;;;5530123;26;20460;-73
2024/04/26 00:04:53;;;;;;;1.07;0.50;;;5.80;99.90;;;;;;5530219;26;20464;-73
2024/04/26 00:07:23;;;;;;;0.63;0.30;;;5.80;99.90;;;;;;5527032;26;20468;-73
2024/04/26 00:09:55;;;;;;;0.70;0.50;;;5.90;99.90;;;;;;5528817;26;20501;-73
2024/04/26 00:12:24;;;;;;;0.70;0.30;;;5.90;99.90;;;;;;5529493;26;20511;-73
2024/04/26 00:14:57;;;;;;;1.57;0.50;;;6.00;99.90;;;;;;5521480;26;20468;-72
2024/04/26 00:17:27;;;;;;;0.50;0.30;;;6.00;99.90;;;;;;5528996;26;20472;-72
2024/04/26 00:19:59;;;;;;;0.40;0.30;;;6.00;99.90;;;;;;5529535;26;20919;-73
2024/04/26 00:22:28;;;;;;;0.60;0.37;;;6.00;99.90;;;;;;5529703;26;20972;-73
2024/04/26 00:24:57;;;;;;;0.70;0.30;;;6.00;99.90;;;;;;5529884;26;20586;-72
2024/04/26 00:27:28;;;;;;;0.80;0.50;;;6.00;99.90;;;;;;5529160;26;20452;-71
2024/04/26 00:29:57;;;;;;;2.77;0.40;;;6.00;99.90;;;;;;5529226;26;20488;-72
2024/04/26 00:32:27;;;;;;;2.27;0.40;;;5.90;99.90;;;;;;5529443;26;20524;-72
2024/04/26 00:34:59;;;;;;;0.80;0.40;;;5.90;99.90;;;;;;5529274;26;20477;-73
2024/04/26 00:37:27;;;;;;;0.90;0.50;;;5.90;99.90;;;;;;5529141;26;20589;-72
2024/04/26 00:39:56;;;;;;;0.40;0.27;;;5.80;99.90;;;;;;5529153;26;20457;-72
2024/04/26 00:42:27;;;;;;;1.17;0.30;;;5.80;99.90;;;;;;5529485;26;20499;-73
2024/04/26 00:44:58;;;;;;;0.70;0.30;;;5.80;99.90;;;;;;5529771;26;20519;-73
2024/04/26 00:47:27;;;;;;;0.70;0.30;;;5.70;99.90;;;;;;5497424;26;20483;-73
2024/04/26 00:50:02;;;;;;;0.73;0.40;;;5.70;99.90;;;;;;5528602;26;20461;-72
2024/04/26 00:52:32;;;;;;;0.40;0.23;;;5.70;99.90;;;;;;5528974;26;20528;-72
2024/04/26 00:55:06;;;;;;;0.47;0.40;;;5.80;99.90;;;;;;5523539;26;20512;-72
2024/04/26 00:57:35;;;;;;;0.67;0.40;;;5.70;99.90;;;;;;5535287;25;21892;-71
2024/04/26 01:00:05;;;;;;;0.60;0.30;;;5.70;99.90;;;;;;5529096;26;20546;-72
2024/04/26 01:02:34;;;;;;;0.70;0.30;;;5.70;99.90;;;;;;5528468;26;20775;-73
2024/04/26 01:05:07;;;;;;;0.47;0.20;;;5.70;99.90;;;;;;5519918;26;20476;-73
2024/04/26 01:07:36;;;;;;;1.07;0.30;;;5.60;99.90;;;;;;5529221;26;20613;-74
2024/04/26 01:10:05;;;;;;;0.77;0.27;;;5.50;99.90;;;;;;5526910;26;20441;-73
2024/04/26 01:12:34;;;;;;;0.70;0.30;;;5.40;99.90;;;;;;5526459;26;20592;-73
2024/04/26 01:15:02;;;;;;;3.90;0.30;;;5.50;99.90;;;;;;5519311;26;20509;-72
2024/04/26 01:17:31;;;;;;;0.70;0.30;;;5.50;99.90;;;;;;5525414;26;20539;-72
2024/04/26 01:20:00;;;;;;;1.00;0.40;;;5.50;99.90;;;;;;5530310;26;20519;-73
2024/04/26 01:22:37;;;;;;;1.13;0.30;;;5.50;99.90;;;;;;5533922;26;20753;-71
2024/04/26 01:25:11;;;;;;;4.63;0.30;;;5.50;99.90;;;;;;5520950;26;20508;-73
2024/04/26 01:27:40;;;;;;;0.50;0.30;;;5.40;99.90;;;;;;5535079;26;20516;-72
2024/04/26 01:30:16;;;;;;;0.50;0.30;;;5.40;99.90;;;;;;5535288;26;20508;-72
2024/04/26 01:32:44;;;;;;;0.50;0.30;;;5.40;99.90;;;;;;5533350;26;20490;-72
2024/04/26 01:35:14;;;;;;;1.17;0.20;;;5.40;99.90;;;;;;5541468;25;20872;-72
2024/04/26 01:37:42;;;;;;;2.60;0.40;;;5.30;99.90;;;;;;5562616;25;20468;-72
2024/04/26 01:40:14;;;;;;;0.60;0.27;;;5.30;99.90;;;;;;5533399;26;20464;-73
2024/04/26 01:42:44;;;;;;;0.77;0.40;;;5.40;99.90;;;;;;5532417;26;20460;-71
2024/04/26 01:45:13;;;;;;;0.73;0.30;;;5.50;99.90;;;;;;5532368;26;20942;-72
2024/04/26 01:47:42;;;;;;;0.40;0.20;;;5.50;99.90;;;;;;5531580;26;20460;-71
2024/04/26 01:50:11;;;;;;;0.60;0.33;;;5.50;99.90;;;;;;5532786;26;20448;-71
2024/04/26 01:52:40;;;;;;;0.50;0.30;;;5.60;99.90;;;;;;5532365;26;20468;-71
2024/04/26 01:55:09;;;;;;;0.63;0.30;;;5.70;99.90;;;;;;5532950;26;20516;-72
2024/04/26 01:57:38;;;;;;;0.63;0.37;;;5.70;99.90;;;;;;5532043;26;20467;-74
2024/04/26 02:00:08;;;;;;;0.70;0.37;;;5.80;99.90;;;;;;5531675;26;20472;-72
2024/04/26 02:02:35;;;;;;;0.47;0.27;;;5.70;99.90;;;;;;5542351;25;20439;-72
2024/04/26 02:05:04;;;;;;;0.70;0.33;;;5.60;99.90;;;;;;5533779;25;20512;-71
2024/04/26 02:07:30;;;;;;;0.90;0.50;;;5.60;99.90;;;;;;5533342;25;20509;-72
2024/04/26 02:10:00;;;;;;;0.80;0.30;;;5.50;99.90;;;;;;5534869;25;20853;-73
2024/04/26 02:12:29;;;;;;;0.60;0.40;;;5.50;99.90;;;;;;5531372;26;21040;-73
2024/04/26 02:15:00;;;;;;;1.23;0.20;;;5.40;99.90;;;;;;5532319;26;20464;-73
2024/04/26 02:17:28;;;;;;;1.20;0.50;;;5.40;99.90;;;;;;5529835;26;20515;-72
2024/04/26 02:19:58;;;;;;;0.80;0.40;;;5.40;99.90;;;;;;5530915;26;20518;-73
2024/04/26 02:22:30;;;;;;;0.50;0.30;;;5.30;99.90;;;;;;5498928;26;20468;-75
2024/04/26 02:24:59;;;;;;;0.60;0.40;;;5.30;99.90;;;;;;5531995;26;20468;-74
2024/04/26 02:27:28;;;;;;;0.83;0.30;;;5.30;99.90;;;;;;5533122;26;20460;-73
2024/04/26 02:30:01;;;;;;;0.53;0.40;;;5.30;99.90;;;;;;5535251;25;20550;-74
2024/04/26 02:32:30;;;;;;;0.50;0.30;;;5.30;99.90;;;;;;5532635;26;20456;-74
2024/04/26 02:34:59;;;;;;;1.00;0.50;;;5.30;99.90;;;;;;5529987;26;20464;-74
2024/04/26 02:37:25;;;;;;;3.90;0.30;;;5.30;99.90;;;;;;5533112;26;20464;-73
2024/04/26 02:39:57;;;;;;;0.70;0.40;;;5.30;99.90;;;;;;5532754;26;20484;-74
2024/04/26 02:42:26;;;;;;;0.80;0.40;;;5.30;99.90;;;;;;5527058;26;20464;-74
2024/04/26 02:44:55;;;;;;;0.53;0.30;;;5.30;99.90;;;;;;5532954;26;20436;-73
2024/04/26 02:47:28;;;;;;;0.70;0.47;;;5.20;99.90;;;;;;5517677;26;20456;-72
2024/04/26 02:49:57;;;;;;;1.57;0.37;;;5.20;99.90;;;;;;5531798;26;20935;-73
2024/04/26 02:52:28;;;;;;;1.47;0.50;;;5.10;99.90;;;;;;5532509;26;20543;-73
2024/04/26 02:55:02;;;;;;;1.10;0.50;;;5.30;99.90;;;;;;5532886;26;21025;-73
2024/04/26 02:57:31;;;;;;;0.50;0.30;;;5.30;99.90;;;;;;5530253;26;20512;-73
2024/04/26 03:00:00;;;;;;;0.50;0.30;;;5.30;99.90;;;;;;5532291;26;20449;-73
2024/04/26 03:02:32;;;;;;;1.10;0.40;;;5.30;99.90;;;;;;5539767;25;20546;-73
2024/04/26 03:05:01;;;;;;;0.47;0.27;;;5.30;99.90;;;;;;5570065;25;20467;-72
2024/04/26 03:07:30;;;;;;;1.53;0.30;;;5.30;99.90;;;;;;5569458;25;20873;-74
2024/04/26 03:09:59;;;;;;;0.40;0.27;;;5.30;99.90;;;;;;5569507;25;20535;-74
2024/04/26 03:12:31;;;;;;;0.50;0.30;;;5.20;99.90;;;;;;5569364;25;21187;-75
2024/04/26 03:15:00;;;;;;;0.73;0.43;;;5.20;99.90;;;;;;5569175;25;20782;-73
2024/04/26 03:17:31;;;;;;;0.73;0.30;;;5.10;99.90;;;;;;5569140;25;20795;-73
2024/04/26 03:20:00;;;;;;;0.50;0.30;;;5.10;99.90;;;;;;5569496;25;20952;-74
2024/04/26 03:22:32;;;;;;;1.20;0.40;;;5.20;99.90;;;;;;5567832;25;20494;-74
2024/04/26 03:25:01;;;;;;;0.83;0.27;;;5.20;99.90;;;;;;5566996;25;20468;-73
2024/04/26 03:27:29;;;;;;;0.83;0.30;;;5.20;99.90;;;;;;5566957;25;20471;-73
2024/04/26 03:29:59;;;;;;;0.50;0.30;;;5.10;99.90;;;;;;5534301;25;20727;-73
2024/04/26 03:32:27;;;;;;;0.70;0.40;;;5.10;99.90;;;;;;5563423;25;20542;-72
2024/04/26 03:34:59;;;;;;;0.73;0.37;;;5.10;99.90;;;;;;5567929;25;20523;-73
2024/04/26 03:37:28;;;;;;;2.10;0.30;;;5.10;99.90;;;;;;5553427;25;20439;-73
2024/04/26 03:39:57;;;;;;;0.47;0.30;;;5.20;99.90;;;;;;5567256;25;20777;-73
2024/04/26 03:42:26;;;;;;;0.57;0.30;;;5.20;99.90;;;;;;5562515;25;20455;-74
2024/04/26 03:44:58;;;;;;;0.80;0.30;;;5.20;99.90;;;;;;5565825;25;20475;-73
2024/04/26 03:47:27;;;;;;;0.73;0.40;;;5.20;99.90;;;;;;5566998;25;20447;-74
2024/04/26 03:50:01;;;;;;;2.23;0.40;;;5.20;99.90;;;;;;5565620;25;20780;-74
2024/04/26 03:52:30;;;;;;;0.50;0.30;;;5.20;99.90;;;;;;5562128;25;20458;-73
2024/04/26 03:54:59;;;;;;;0.83;0.40;;;5.20;99.90;;;;;;5565691;25;20443;-73
2024/04/26 03:57:28;;;;;;;0.80;0.30;;;5.20;99.90;;;;;;5558313;25;20865;-72
2024/04/26 03:59:59;;;;;;;5.23;0.50;;;5.10;99.90;;;;;;5565919;25;20517;-73
2024/04/26 04:02:28;;;;;;;0.50;0.30;;;5.10;99.90;;;;;;5558802;25;20475;-74
2024/04/26 04:04:57;;;;;;;0.60;0.30;;;5.10;99.90;;;;;;5543241;25;20956;-73
2024/04/26 04:07:29;;;;;;;0.40;0.23;;;5.10;99.90;;;;;;5533497;25;20455;-73
2024/04/26 04:09:59;;;;;;;0.53;0.30;;;5.20;99.90;;;;;;5535459;25;20459;-73
2024/04/26 04:12:28;;;;;;;0.70;0.30;;;5.10;99.90;;;;;;5541647;25;20481;-73
2024/04/26 04:14:58;;;;;;;0.47;0.30;;;5.10;99.90;;;;;;5549497;25;20978;-73
2024/04/26 04:17:29;;;;;;;1.00;0.50;;;5.10;99.90;;;;;;5543854;25;20464;-73
2024/04/26 04:19:58;;;;;;;1.10;0.40;;;5.20;99.90;;;;;;5540507;25;20460;-73
2024/04/26 04:22:31;;;;;;;1.20;0.40;;;5.20;99.90;;;;;;5530940;25;20551;-73
2024/04/26 04:25:00;;;;;;;0.50;0.30;;;5.30;99.90;;;;;;5538639;25;20595;-74
2024/04/26 04:27:29;;;;;;;0.90;0.40;;;5.40;99.90;;;;;;5525615;25;20470;-72
2024/04/26 04:29:59;;;;;;;2.70;0.40;;;5.40;99.90;;;;;;5541931;25;20474;-72
2024/04/26 04:32:28;;;;;;;0.93;0.40;;;5.40;99.90;;;;;;5527028;25;20469;-72
2024/04/26 04:34:59;;;;;;;1.17;0.43;;;5.50;99.90;;;;;;5544076;25;20468;-73
2024/04/26 04:37:31;;;;;;;1.00;0.40;;;5.40;99.90;;;;;;5530075;25;20443;-73
2024/04/26 04:40:00;;;;;;;0.60;0.40;;;5.30;99.90;;;;;;5541080;25;20516;-73
2024/04/26 04:42:29;;;;;;;1.10;0.60;;;5.30;99.90;;;;;;5534464;25;20468;-71
2024/04/26 04:44:59;;;;;;;0.90;0.40;;;5.50;99.90;;;;;;5536376;25;20464;-72
2024/04/26 04:47:29;;;;;;;0.90;0.53;;;5.50;99.90;;;;;;5517850;25;20468;-72
2024/04/26 04:50:00;;;;;;;2.00;0.40;;;5.60;99.90;;;;;;5540359;25;20440;-73
2024/04/26 04:52:32;;;;;;;0.87;0.60;;;5.60;99.90;;;;;;5540519;25;21125;-72
2024/04/26 04:55:01;;;;;;;0.93;0.40;;;5.70;99.90;;;;;;5542696;25;21113;-73
2024/04/26 04:57:30;;;;;;;0.87;0.37;;;5.70;99.90;;;;;;5520781;25;20544;-73
2024/04/26 05:00:05;;;;;;;2.20;0.30;;;5.70;99.90;;;;;;5541804;25;20468;-73
2024/04/26 05:02:34;;;;;;;2.10;0.40;;;5.70;99.90;;;;;;5535282;25;21124;-73
2024/04/26 05:05:05;;;;;;;0.70;0.40;;;5.70;99.90;;;;;;5563677;25;20928;-72
2024/04/26 05:07:37;;;;;;;0.80;0.30;;;5.80;99.90;;;;;;5559285;25;20590;-72
2024/04/26 05:10:06;;;;;;;3.50;0.40;;;5.90;99.90;;;;;;5561984;25;20463;-73
2024/04/26 05:12:35;;;;;;;1.50;0.50;;;5.90;99.90;;;;;;5586570;25;20517;-72
2024/04/26 05:15:06;;;;;;;2.73;0.57;;;6.00;99.90;;;;;;5578895;25;20467;-72
2024/04/26 05:17:35;;;;;;;0.70;0.40;;;6.00;99.90;;;;;;5600706;25;20450;-72
2024/04/26 05:20:04;;;;;;;0.80;0.40;;;6.10;99.90;;;;;;5581249;25;20443;-73
2024/04/26 05:22:38;;;;;;;1.00;0.30;;;6.20;99.90;;;;;;5579713;25;20453;-72
2024/04/26 05:25:07;;;;;;;2.97;0.30;;;6.30;99.90;;;;;;5560668;25;20471;-74
2024/04/26 05:27:33;;;;;;;0.90;0.40;;;6.30;99.90;;;;;;5560612;25;20518;-73
2024/04/26 05:30:04;;;;;;;1.20;0.50;;;6.40;99.90;;;;;;5557942;25;21199;-73
2024/04/26 05:32:33;;;;;;;2.30;0.43;;;6.50;99.90;;;;;;5555852;25;20515;-73
2024/04/26 05:35:02;;;;;;;0.50;0.30;;;6.50;99.90;;;;;;5545316;25;20444;-72
2024/04/26 05:37:30;;;;;;;0.90;0.50;;;6.50;99.90;;;;;;5555452;25;20447;-73
2024/04/26 05:40:02;;;;;;;0.70;0.30;;;6.50;99.90;;;;;;5582312;25;20523;-73
2024/04/26 05:42:30;;;;;;;0.90;0.40;;;6.50;99.90;;;;;;5583844;25;20726;-73
2024/04/26 05:45:00;;;;;;;0.90;0.43;;;6.40;99.90;;;;;;5597941;25;20550;-73
2024/04/26 05:47:32;;;;;;;0.63;0.40;;;6.40;99.90;;;;;;5567692;25;20465;-73
2024/04/26 05:50:29;;;;;;;0.80;0.40;;;6.40;99.90;;;;;;5568311;25;20447;-73
2024/04/26 05:52:58;;;;;;;1.43;0.40;;;6.40;99.90;;;;;;5540532;25;20453;-73
2024/04/26 05:55:29;;;;;;;0.83;0.40;;;6.40;99.90;;;;;;5566816;25;20497;-72
2024/04/26 05:57:58;;;;;;;0.80;0.60;;;6.30;99.90;;;;;;5561210;25;20467;-73
2024/04/26 06:00:28;;;;;;;2.27;0.47;;;6.30;99.90;;;;;;5535755;25;20511;-73
2024/04/26 06:02:57;;;;;;;0.70;0.40;;;6.40;99.90;;;;;;5571724;25;20465;-72
2024/04/26 06:05:26;;;;;;;1.43;0.40;;;6.40;99.90;;;;;;5600097;25;20481;-72
2024/04/26 06:07:58;;;;;;;3.53;0.50;;;6.50;99.90;;;;;;5572630;25;20453;-75
2024/04/26 06:10:32;;;;;;;1.47;0.40;;;7.00;99.90;;;;;;5606580;25;20488;-75
2024/04/26 06:13:01;;;;;;;1.10;0.50;;;7.60;99.90;;;;;;5608491;25;20461;-75
2024/04/26 06:15:30;;;;;;;1.70;0.50;;;7.80;99.90;;;;;;5607959;25;20529;-75
2024/04/26 06:17:59;;;;;;;1.90;0.50;;;7.70;99.90;;;;;;5576298;25;20479;-75
2024/04/26 06:20:29;;;;;;;1.40;0.57;;;7.50;99.90;;;;;;5581443;25;20792;-75
2024/04/26 06:22:58;;;;;;;1.30;0.57;;;7.50;99.90;;;;;;5608293;25;20938;-75
2024/04/26 06:25:31;;;;;;;0.80;0.50;;;7.60;99.90;;;;;;5571634;25;20474;-74
2024/04/26 06:28:00;;;;;;;1.00;0.40;;;7.50;99.90;;;;;;5570027;25;20892;-75
2024/04/26 06:30:29;;;;;;;2.30;0.40;;;7.70;99.90;;;;;;5555827;25;20509;-74
2024/04/26 06:32:59;;;;;;;0.70;0.47;;;7.60;99.90;;;;;;5543639;25;20461;-74
2024/04/26 06:35:30;;;;;;;0.80;0.50;;;7.50;99.90;;;;;;5562254;25;21828;-73
2024/04/26 06:37:58;;;;;;;1.00;0.40;;;7.40;99.90;;;;;;5568131;25;20490;-75
2024/04/26 06:40:27;;;;;;;0.60;0.40;;;7.50;99.90;;;;;;5585236;25;20497;-75
2024/04/26 06:43:04;;;;;;;0.83;0.40;;;7.50;99.90;;;;;;5583885;25;20462;-75
2024/04/26 06:45:33;;;;;;;0.70;0.50;;;7.60;99.90;;;;;;5566603;25;20725;-74
2024/04/26 06:48:02;;;;;;;0.70;0.30;;;7.70;99.90;;;;;;5529675;25;20528;-74
2024/04/26 06:50:31;;;;;;;0.67;0.33;;;7.80;99.90;;;;;;5550286;25;20794;-74
2024/04/26 06:53:00;;;;;;;2.73;0.50;;;7.90;99.90;;;;;;5567467;25;20447;-74
2024/04/26 06:55:29;;;;;;;0.60;0.30;;;7.90;99.90;;;;;;5591132;25;20454;-74
2024/04/26 06:58:01;;;;;;;1.53;0.33;;;7.90;99.90;;;;;;5561464;25;21033;-75
2024/04/26 07:00:29;;;;;;;1.33;0.40;;;8.00;99.90;;;;;;5540180;25;20912;-75
2024/04/26 07:02:59;;;;;;;1.17;0.50;;;8.00;99.90;;;;;;5532186;25;20473;-74
2024/04/26 07:05:27;;;;;;;0.70;0.30;;;8.10;99.90;;;;;;5555731;25;20512;-74
2024/04/26 07:07:56;;;;;;;0.60;0.40;;;8.20;99.90;;;;;;5565040;25;20971;-74
2024/04/26 07:10:30;;;;;;;3.17;0.40;;;8.30;99.90;;;;;;5574594;25;20462;-75
2024/04/26 07:13:02;;;;;;;0.50;0.37;;;8.40;99.90;;;;;;5566201;25;21035;-75
2024/04/26 07:15:31;;;;;;;0.67;0.33;;;8.60;99.90;;;;;;5565842;25;20466;-75
2024/04/26 07:18:00;;;;;;;0.80;0.40;;;8.60;99.90;;;;;;5563004;25;20467;-74
2024/04/26 07:20:28;;;;;;;0.40;0.30;;;8.70;99.90;;;;;;5552402;25;20463;-74
2024/04/26 07:22:58;;;;;;;1.80;0.57;;;8.80;99.90;;;;;;5546875;25;20517;-74
2024/04/26 07:25:27;;;;;;;0.80;0.40;;;8.90;99.90;;;;;;5568552;25;20495;-74
2024/04/26 07:27:55;;;;;;;0.50;0.40;;;9.10;99.90;;;;;;5575533;25;20542;-74
2024/04/26 07:30:27;;;;;;;0.83;0.30;;;9.20;99.90;;;;;;5565749;25;20455;-74
2024/04/26 07:32:58;;;;;;;0.73;0.30;;;9.30;99.90;;;;;;5511577;25;20464;-74
2024/04/26 07:35:31;;;;;;;0.73;0.40;;;9.40;99.90;;;;;;5564161;25;20543;-74
2024/04/26 07:38:00;;;;;;;0.53;0.37;;;9.60;99.90;;;;;;5552419;25;20483;-74
2024/04/26 07:40:29;;;;;;;0.57;0.33;;;9.70;99.90;;;;;;5563158;25;20498;-74
2024/04/26 07:42:58;;;;;;;0.73;0.37;;;9.90;99.90;;;;;;5564427;25;20515;-74
2024/04/26 07:45:31;;;;;;;0.80;0.40;;;9.90;99.90;;;;;;5565711;25;20471;-73
2024/04/26 07:47:59;;;;;;;0.50;0.30;;;10.10;99.90;;;;;;5566451;25;20471;-73
2024/04/26 07:50:28;;;;;;;0.43;0.30;;;10.30;99.90;;;;;;5545958;25;20564;-74
2024/04/26 07:52:57;;;;;;;0.60;0.30;;;10.40;99.90;;;;;;5544634;25;20456;-74
2024/04/26 07:55:29;;;;;;;1.00;0.40;;;10.60;99.90;;;;;;5562067;25;20471;-75
2024/04/26 07:57:58;;;;;;;0.70;0.40;;;10.70;99.90;;;;;;5545104;25;20466;-74
2024/04/26 08:00:29;;;;;;;0.53;0.30;;;10.90;99.90;;;;;;5555980;25;20469;-74
2024/04/26 08:02:58;;;;;;;0.50;0.40;;;11.10;99.90;;;;;;5538316;25;20470;-75
2024/04/26 08:05:29;;;;;;;0.88;0.40;;;11.40;99.90;;;;;;5558220;25;20358;-75
2024/04/26 08:07:58;;;;;;;0.70;0.30;;;11.50;99.90;;;;;;5559585;25;20226;-75
2024/04/26 08:10:27;;;;;;;0.50;0.30;;;11.70;99.90;;;;;;5555053;25;20530;-74
2024/04/26 08:12:56;;;;;;;1.27;0.30;;;11.60;99.90;;;;;;5558796;25;20559;-75
2024/04/26 08:15:25;;;;;;;0.70;0.40;;;11.60;99.90;;;;;;5569137;25;20470;-75
2024/04/26 08:17:57;;;;;;;0.40;0.20;;;11.60;99.90;;;;;;5547875;25;20729;-75
2024/04/26 08:20:29;;;;;;;0.50;0.30;;;11.70;99.90;;;;;;5553939;25;20463;-75
2024/04/26 08:22:57;;;;;;;0.60;0.30;;;11.60;99.90;;;;;;5554706;25;20592;-75
2024/04/26 08:25:31;;;;;;;0.47;0.30;;;11.70;99.90;;;;;;5559803;25;20566;-75
2024/04/26 08:28:00;;;;;;;0.70;0.30;;;11.60;99.90;;;;;;5563116;25;20513;-74
2024/04/26 08:30:34;;;;;;;0.50;0.30;;;11.60;99.90;;;;;;5546269;25;20510;-76
2024/04/26 08:33:07;;;;;;;0.50;0.30;;;11.60;99.90;;;;;;5583102;25;20471;-77
2024/04/26 08:35:36;;;;;;;1.10;0.40;;;11.70;99.90;;;;;;5564270;25;20462;-74
2024/04/26 08:38:05;;;;;;;0.43;0.20;;;11.80;99.90;;;;;;5560451;25;20555;-77
2024/04/26 08:40:35;;;;;;;0.70;0.33;;;11.90;99.90;;;;;;5555213;25;21010;-76
2024/04/26 08:43:05;;;;;;;0.70;0.30;;;12.00;99.90;;;;;;5542842;25;20523;-75
2024/04/26 08:45:39;;;;;;;1.70;0.30;;;12.10;99.90;;;;;;5557316;25;20464;-76
2024/04/26 08:48:13;;;;;;;0.53;0.20;;;11.60;99.90;;;;;;5554888;25;20473;-75
2024/04/26 08:50:42;;;;;;;0.70;0.37;;;11.50;99.90;;;;;;5548489;25;20479;-76
2024/04/26 08:53:11;;;;;;;3.63;0.40;;;11.50;99.90;;;;;;5545734;25;20519;-79
2024/04/26 08:55:53;;;;;;;0.57;0.27;;;11.50;99.90;;;;;;5538691;25;20464;-76
2024/04/26 08:58:24;;;;;;;0.83;0.30;;;11.40;99.90;;;;;;5542810;25;20960;-77
2024/04/26 09:00:53;;;;;;;2.43;0.23;;;11.40;99.90;;;;;;5522258;26;20610;-77
2024/04/26 09:03:29;;;;;;;0.40;0.30;;;11.60;99.90;;;;;;5559200;25;20518;-77
2024/04/26 09:05:58;;;;;;;0.60;0.30;;;11.60;99.90;;;;;;5536184;25;20564;-76
2024/04/26 09:08:32;;;;;;;0.43;0.30;;;11.70;99.90;;;;;;5558730;25;20571;-77
2024/04/26 09:11:00;;;;;;;0.50;0.30;;;11.80;99.90;;;;;;5542313;25;20517;-75
2024/04/26 09:13:32;;;;;;;0.77;0.40;;;11.70;99.90;;;;;;5542616;25;20561;-77
2024/04/26 09:16:01;;;;;;;0.50;0.30;;;11.70;99.90;;;;;;5533015;25;20360;-74
2024/04/26 09:18:33;;;;;;;0.40;0.30;;;11.80;99.90;;;;;;5541478;25;20645;-77
2024/04/26 09:21:02;;;;;;;0.90;0.40;;;11.80;99.90;;;;;;5545175;25;20545;-75
2024/04/26 09:23:31;;;;;;;0.60;0.40;;;11.70;99.90;;;;;;5549855;25;20471;-76
2024/04/26 09:26:08;;;;;;;1.27;0.30;;;11.80;99.90;;;;;;5564826;25;20509;-76
2024/04/26 09:28:37;;;;;;;0.40;0.30;;;12.10;99.90;;;;;;5537903;25;20463;-76
2024/04/26 09:31:06;;;;;;;0.80;0.50;;;12.20;99.90;;;;;;5564925;25;20467;-76
2024/04/26 09:33:39;;;;;;;1.07;0.37;;;12.10;99.90;;;;;;5565470;25;20567;-75
2024/04/26 09:36:08;;;;;;;0.50;0.20;;;12.40;99.90;;;;;;5568576;25;20455;-76
2024/04/26 09:38:39;;;;;;;0.50;0.30;;;12.60;99.90;;;;;;5580704;25;20537;-76
2024/04/26 09:41:09;;;;;;;1.00;0.40;;;12.70;99.90;;;;;;5556631;25;20455;-75
2024/04/26 09:43:40;;;;;;;0.57;0.37;;;12.50;99.90;;;;;;5576777;25;20498;-75
2024/04/26 09:46:10;;;;;;;1.00;0.60;;;12.70;99.90;;;;;;5584482;25;21054;-74
2024/04/26 09:48:43;;;;;;;0.67;0.40;;;12.60;99.90;;;;;;5570960;25;20482;-77
2024/04/26 09:51:14;;;;;;;0.50;0.40;;;12.50;99.90;;;;;;5581185;25;21455;-75
2024/04/26 09:53:45;;;;;;;1.23;0.50;;;12.60;99.90;;;;;;5572349;25;20474;-74
2024/04/26 09:56:15;;;;;;;0.80;0.40;;;12.80;99.90;;;;;;5542198;25;20462;-76
2024/04/26 09:58:45;;;;;;;0.70;0.30;;;12.90;99.90;;;;;;5540867;25;20524;-75
2024/04/26 10:01:19;;;;;;;0.60;0.40;;;12.90;99.90;;;;;;5501238;25;20983;-74
2024/04/26 10:03:56;;;;;;;0.80;0.30;;;13.10;99.90;;;;;;5549775;25;20747;-74
2024/04/26 10:06:27;;;;;;;0.47;0.30;;;13.00;99.90;;;;;;5508486;25;20475;-75
2024/04/26 10:08:56;;;;;;;0.67;0.40;;;13.10;99.90;;;;;;5564900;25;20582;-74
2024/04/26 10:11:28;;;;;;;0.67;0.30;;;13.20;99.90;;;;;;5544898;25;20470;-74
2024/04/26 10:13:59;;;;;;;0.50;0.30;;;13.10;99.90;;;;;;5558309;25;20527;-73
2024/04/26 10:16:32;;;;;;;0.67;0.40;;;13.00;99.90;;;;;;5565047;25;20451;-75
2024/04/26 10:19:15;;;;;;;0.93;0.30;;;12.90;99.90;;;;;;5551375;25;20522;-74
2024/04/26 10:21:45;;;;;;;0.60;0.40;;;13.20;99.90;;;;;;5551621;25;20477;-76
2024/04/26 10:24:14;;;;;;;0.43;0.30;;;13.50;99.90;;;;;;5550559;25;20479;-75
2024/04/26 10:26:54;;;;;;;0.37;0.20;;;13.60;99.90;;;;;;5558124;25;20920;-75
2024/04/26 10:29:23;;;;;;;1.80;0.30;;;13.80;99.90;;;;;;5545870;25;20553;-74
2024/04/26 10:31:51;;;;;;;0.53;0.27;;;13.90;99.90;;;;;;5566004;25;20502;-73
2024/04/26 10:34:23;;;;;;;0.47;0.30;;;13.90;99.90;;;;;;5536085;25;20461;-76
2024/04/26 10:36:52;;;;;;;0.80;0.40;;;14.10;99.90;;;;;;5549586;25;20471;-75
2024/04/26 10:39:31;;;;;;;0.70;0.40;;;14.10;99.90;;;;;;5573161;25;20466;-75
2024/04/26 10:42:02;;;;;;;0.60;0.30;;;13.90;99.90;;;;;;5559579;25;20992;-76
2024/04/26 10:44:31;;;;;;;0.57;0.40;;;13.90;99.90;;;;;;5563938;25;20564;-75
2024/04/26 10:47:00;;;;;;;0.60;0.30;;;14.20;99.90;;;;;;5566876;25;20924;-75
2024/04/26 10:49:33;;;;;;;0.40;0.20;;;14.40;99.90;;;;;;5565660;25;20454;-77
2024/04/26 10:52:02;;;;;;;0.70;0.40;;;14.40;99.90;;;;;;5564430;25;20459;-76
2024/04/26 10:54:33;;;;;;;1.17;0.30;;;14.50;99.90;;;;;;5587951;25;20462;-76
2024/04/26 10:57:03;;;;;;;0.40;0.20;;;14.70;99.90;;;;;;5568836;25;20811;-74
2024/04/26 10:59:35;;;;;;;0.40;0.30;;;14.70;99.90;;;;;;5548679;25;20968;-76
2024/04/26 11:02:11;;;;;;;0.70;0.30;;;14.60;99.90;;;;;;5555555;25;20455;-74
2024/04/26 11:04:42;;;;;;;0.90;0.30;;;14.80;99.90;;;;;;5586902;25;20558;-74
2024/04/26 11:07:15;;;;;;;0.53;0.30;;;15.00;99.90;;;;;;5554449;25;20537;-74
2024/04/26 11:09:48;;;;;;;0.90;0.37;;;14.90;99.90;;;;;;5601577;25;20717;-73
2024/04/26 11:12:17;;;;;;;0.60;0.30;;;14.60;99.90;;;;;;5559395;25;20462;-73
2024/04/26 11:14:46;;;;;;;0.60;0.30;;;14.30;99.90;;;;;;5551720;25;20563;-74
2024/04/26 11:17:15;;;;;;;0.43;0.30;;;14.20;99.90;;;;;;5529349;26;20524;-73
2024/04/26 11:19:46;;;;;;;0.83;0.30;;;14.10;99.90;;;;;;5541280;25;20459;-73
2024/04/26 11:22:15;;;;;;;0.60;0.30;;;14.30;99.90;;;;;;5567639;25;20463;-74
2024/04/26 11:24:44;;;;;;;0.60;0.30;;;14.30;99.90;;;;;;5568937;25;20459;-73
2024/04/26 11:27:18;;;;;;;0.50;0.30;;;14.50;99.90;;;;;;5603703;25;20532;-73
2024/04/26 11:29:47;;;;;;;0.73;0.40;;;14.60;99.90;;;;;;5574027;25;20559;-74
2024/04/26 11:32:17;;;;;;;0.70;0.27;;;14.70;99.90;;;;;;5569079;25;20479;-74
2024/04/26 11:34:48;;;;;;;0.47;0.20;;;14.70;99.90;;;;;;5569337;25;20488;-74
2024/04/26 11:37:17;;;;;;;1.20;0.30;;;14.50;99.90;;;;;;5538550;25;20456;-73
2024/04/26 11:39:46;;;;;;;1.23;0.50;;;14.40;99.90;;;;;;5567888;25;20502;-74
2024/04/26 11:42:15;;;;;;;0.50;0.30;;;14.10;99.90;;;;;;5565744;25;20530;-75
2024/04/26 11:44:44;;;;;;;1.13;0.30;;;14.20;99.90;;;;;;5575264;25;20525;-74
2024/04/26 11:47:16;;;;;;;0.40;0.30;;;14.30;99.90;;;;;;5560909;25;20777;-74
2024/04/26 11:49:49;;;;;;;0.40;0.20;;;14.30;99.90;;;;;;5577851;25;21365;-72
2024/04/26 11:52:18;;;;;;;0.50;0.30;;;14.20;99.90;;;;;;5581556;25;20582;-74
2024/04/26 11:54:46;;;;;;;1.20;0.30;;;14.00;99.90;;;;;;5569112;25;20513;-74
2024/04/26 11:57:15;;;;;;;0.53;0.20;;;14.10;99.90;;;;;;5544555;25;21202;-74
2024/04/26 11:59:45;;;;;;;0.83;0.20;;;14.10;99.90;;;;;;5548270;25;20956;-75
2024/04/26 12:02:17;;;;;;;0.50;0.20;;;14.20;99.90;;;;;;5559050;25;20459;-75
2024/04/26 12:04:50;;;;;;;0.40;0.30;;;14.20;99.90;;;;;;5551708;25;20468;-74
2024/04/26 12:07:20;;;;;;;0.50;0.23;;;14.20;99.90;;;;;;5528235;25;20468;-74
2024/04/26 12:09:49;;;;;;;0.50;0.37;;;14.30;99.90;;;;;;5535942;25;20464;-73
2024/04/26 12:12:18;;;;;;;0.47;0.30;;;14.40;99.90;;;;;;5525367;25;20559;-74
2024/04/26 12:14:46;;;;;;;0.60;0.30;;;14.60;99.90;;;;;;5529316;25;20819;-73
2024/04/26 12:17:15;;;;;;;1.83;0.30;;;14.60;99.90;;;;;;5558045;25;20458;-74
2024/04/26 12:19:44;;;;;;;0.43;0.20;;;14.70;99.90;;;;;;5528759;25;20515;-75
2024/04/26 12:22:18;;;;;;;0.40;0.20;;;14.80;99.90;;;;;;5545434;25;20480;-74
2024/04/26 12:24:47;;;;;;;1.23;0.20;;;14.90;99.90;;;;;;5538300;25;20521;-74
2024/04/26 12:27:17;;;;;;;0.50;0.20;;;14.80;99.90;;;;;;5524062;25;20523;-74
2024/04/26 12:29:52;;;;;;;0.40;0.20;;;14.70;99.90;;;;;;5556545;25;20493;-73
2024/04/26 12:32:22;;;;;;;0.57;0.27;;;14.70;99.90;;;;;;5511975;25;20467;-73
2024/04/26 12:34:51;;;;;;;0.40;0.20;;;14.80;99.90;;;;;;5552088;25;20456;-73
2024/04/26 12:37:24;;;;;;;0.47;0.20;;;15.20;99.90;;;;;;5549234;25;20478;-73
2024/04/26 12:40:05;;;;;;;0.30;0.20;;;15.30;99.90;;;;;;5549569;25;20467;-73
2024/04/26 12:42:35;;;;;;;0.63;0.30;;;15.20;99.90;;;;;;5554316;25;20526;-74
2024/04/26 12:45:04;;;;;;;0.57;0.20;;;15.20;99.90;;;;;;5565016;25;20554;-72
2024/04/26 12:47:36;;;;;;;0.43;0.20;;;15.20;99.90;;;;;;5544744;25;20551;-72
2024/04/26 12:50:06;;;;;;;0.47;0.30;;;15.10;99.90;;;;;;5526509;26;20589;-72
2024/04/26 12:52:40;;;;;;;0.83;0.30;;;15.10;99.90;;;;;;5528605;25;20472;-73
2024/04/26 12:55:12;;;;;;;0.40;0.20;;;15.10;99.90;;;;;;5559030;25;20458;-73
2024/04/26 12:57:41;;;;;;;0.40;0.20;;;15.30;99.90;;;;;;5560817;25;20518;-72
2024/04/26 13:00:17;;;;;;;0.50;0.20;;;15.50;99.90;;;;;;5562223;25;21066;-73
2024/04/26 13:02:52;;;;;;;0.40;0.20;;;15.30;99.90;;;;;;5532487;25;20464;-73
2024/04/26 13:05:23;;;;;;;0.93;0.20;;;15.30;99.90;;;;;;5485424;26;20513;-73
2024/04/26 13:07:55;;;;;;;0.70;0.27;;;15.00;99.90;;;;;;5489793;26;20474;-73
2024/04/26 13:10:26;;;;;;;0.40;0.20;;;15.10;99.90;;;;;;5491354;26;20589;-73